Time;durP1;ratioP1;P1;durP2;ratioP2;P2;SDS_P1;SDS_P2;PMS_P1;PMS_P2;Temp;Humidity;BMP_temperature;BMP_pressure;BME280_temperature;BME280_humidity;BME280_pressure;Samples;Min_cycle;Max_cycle;Signal;HPM_P1;HPM_P2
2024/01/13 00:01:43;;;;;;;7.90;4.43;;;;;;;;;;5041988;28;20049;-69
2024/01/13 00:04:09;;;;;;;7.55;4.13;;;;;;;;;;5038982;28;20129;-69
2024/01/13 00:06:35;;;;;;;6.93;3.95;;;;;;;;;;5047647;28;20376;-69
2024/01/13 00:09:01;;;;;;;8.07;4.57;;;;;;;;;;5051089;28;20045;-69
2024/01/13 00:11:27;;;;;;;8.57;4.50;;;;;;;;;;5049498;28;20037;-69
2024/01/13 00:13:53;;;;;;;10.70;4.75;;;;;;;;;;5047226;28;20037;-69
2024/01/13 00:16:19;;;;;;;10.90;5.28;;;;;;;;;;5046973;28;20457;-69
2024/01/13 00:18:45;;;;;;;10.88;4.97;;;;;;;;;;5058438;28;20044;-69
2024/01/13 00:21:11;;;;;;;9.25;5.10;;;;;;;;;;5055991;28;20097;-69
2024/01/13 00:23:37;;;;;;;8.55;4.82;;;;;;;;;;5046950;28;20045;-69
2024/01/13 00:26:03;;;;;;;9.55;5.28;;;;;;;;;;5054121;28;20510;-69
2024/01/13 00:28:29;;;;;;;7.95;4.80;;;;;;;;;;5036889;28;20045;-69
2024/01/13 00:30:55;;;;;;;8.88;4.47;;;;;;;;;;5077260;22;20040;-68
2024/01/13 00:33:21;;;;;;;8.40;4.68;;;;;;;;;;5081001;22;20373;-71
2024/01/13 00:35:47;;;;;;;7.45;3.97;;;;;;;;;;5035086;28;20048;-69
2024/01/13 00:38:13;;;;;;;7.80;4.25;;;;;;;;;;5034834;28;20048;-69
2024/01/13 00:40:39;;;;;;;9.43;4.05;;;;;;;;;;5038539;28;20037;-69
2024/01/13 00:43:05;;;;;;;7.95;3.92;;;;;;;;;;5038130;28;20095;-69
2024/01/13 00:45:31;;;;;;;5.75;3.08;;;;;;;;;;5034320;28;20116;-69
2024/01/13 00:47:57;;;;;;;4.78;3.20;;;;;;;;;;5034990;28;20476;-69
2024/01/13 00:50:23;;;;;;;4.30;2.33;;;;;;;;;;5034135;28;20088;-69
2024/01/13 00:52:49;;;;;;;4.20;2.75;;;;;;;;;;5034587;28;20072;-69
2024/01/13 00:55:15;;;;;;;4.57;3.00;;;;;;;;;;5034259;28;20103;-69
2024/01/13 00:57:41;;;;;;;5.20;2.67;;;;;;;;;;5034663;28;20450;-69
2024/01/13 01:00:07;;;;;;;4.68;2.78;;;;;;;;;;5034554;28;20045;-69
2024/01/13 01:02:33;;;;;;;3.97;2.92;;;;;;;;;;5034427;28;20091;-69
2024/01/13 01:04:59;;;;;;;6.63;3.33;;;;;;;;;;5037547;28;20045;-69
2024/01/13 01:07:25;;;;;;;8.85;3.72;;;;;;;;;;5033871;28;20361;-69
2024/01/13 01:09:51;;;;;;;6.80;3.20;;;;;;;;;;5034334;28;20077;-69
2024/01/13 01:12:17;;;;;;;4.88;3.13;;;;;;;;;;5034456;28;20045;-69
2024/01/13 01:14:43;;;;;;;6.50;3.40;;;;;;;;;;5036859;28;20064;-69
2024/01/13 01:17:09;;;;;;;6.55;3.20;;;;;;;;;;5034280;28;20053;-69
2024/01/13 01:19:35;;;;;;;6.25;3.45;;;;;;;;;;5033611;28;20033;-69
2024/01/13 01:22:01;;;;;;;5.07;3.38;;;;;;;;;;5032832;28;20135;-69
2024/01/13 01:24:27;;;;;;;7.35;3.55;;;;;;;;;;5033282;28;20041;-69
2024/01/13 01:26:53;;;;;;;6.60;3.58;;;;;;;;;;5033076;28;20475;-69
2024/01/13 01:29:19;;;;;;;7.35;3.80;;;;;;;;;;5033670;28;20454;-69
2024/01/13 01:31:45;;;;;;;8.30;3.58;;;;;;;;;;5033033;28;20491;-69
2024/01/13 01:34:11;;;;;;;6.57;3.60;;;;;;;;;;5033023;28;20042;-69
2024/01/13 01:36:37;;;;;;;7.72;3.90;;;;;;;;;;5034728;28;20521;-69
2024/01/13 01:39:03;;;;;;;6.85;4.05;;;;;;;;;;5033590;28;20124;-69
2024/01/13 01:41:29;;;;;;;8.63;4.03;;;;;;;;;;5033695;28;20502;-69
2024/01/13 01:43:55;;;;;;;9.85;3.92;;;;;;;;;;5033670;28;20045;-69
2024/01/13 01:46:23;;;;;;;8.43;4.00;;;;;;;;;;5034359;28;20087;-69
2024/01/13 01:48:56;;;;;;;8.88;4.15;;;;;;;;;;5033601;28;20041;-69
2024/01/13 01:51:22;;;;;;;8.38;4.47;;;;;;;;;;5033450;28;20037;-69
2024/01/13 01:53:50;;;;;;;9.55;4.03;;;;;;;;;;5033146;28;20041;-69
2024/01/13 01:56:23;;;;;;;8.43;4.53;;;;;;;;;;5033599;28;20120;-69
2024/01/13 01:58:51;;;;;;;8.05;4.30;;;;;;;;;;5033619;28;20450;-69
2024/01/13 02:01:18;;;;;;;9.18;3.83;;;;;;;;;;5032590;28;20506;-69
2024/01/13 02:03:44;;;;;;;7.65;3.97;;;;;;;;;;5033444;28;20045;-69
2024/01/13 02:06:10;;;;;;;7.75;4.25;;;;;;;;;;5033410;28;20045;-69
2024/01/13 02:08:37;;;;;;;6.97;4.07;;;;;;;;;;5034779;28;20045;-69
2024/01/13 02:11:03;;;;;;;6.80;3.60;;;;;;;;;;5033134;28;20037;-69
2024/01/13 02:13:29;;;;;;;8.40;4.38;;;;;;;;;;5032981;28;20045;-69
2024/01/13 02:15:55;;;;;;;7.95;4.15;;;;;;;;;;5033149;28;20041;-69
2024/01/13 02:18:21;;;;;;;6.85;3.78;;;;;;;;;;5034369;28;20462;-69
2024/01/13 02:20:48;;;;;;;8.85;4.10;;;;;;;;;;5033113;28;20116;-69
2024/01/13 02:23:14;;;;;;;7.43;3.70;;;;;;;;;;5030994;28;20046;-69
2024/01/13 02:25:40;;;;;;;8.65;4.35;;;;;;;;;;5032679;28;20186;-69
2024/01/13 02:28:06;;;;;;;9.02;4.07;;;;;;;;;;5036590;28;20037;-69
2024/01/13 02:30:31;;;;;;;7.75;3.97;;;;;;;;;;5032393;28;20132;-69
2024/01/13 02:32:57;;;;;;;9.13;4.00;;;;;;;;;;5032995;28;20508;-69
2024/01/13 02:35:23;;;;;;;6.20;3.80;;;;;;;;;;5032305;28;20080;-69
2024/01/13 02:37:49;;;;;;;7.78;4.00;;;;;;;;;;5032914;28;20099;-69
2024/01/13 02:40:15;;;;;;;9.38;3.90;;;;;;;;;;5032555;28;20045;-69
2024/01/13 02:42:41;;;;;;;8.63;4.38;;;;;;;;;;5032187;28;20049;-69
2024/01/13 02:45:07;;;;;;;8.40;4.07;;;;;;;;;;5032449;28;20044;-69
2024/01/13 02:47:44;;;;;;;7.38;4.53;;;;;;;;;;5033214;28;20415;-69
2024/01/13 02:50:10;;;;;;;8.10;4.35;;;;;;;;;;5032389;28;20044;-69
2024/01/13 02:52:36;;;;;;;9.52;4.25;;;;;;;;;;5030908;28;20076;-69
2024/01/13 02:55:03;;;;;;;8.52;4.57;;;;;;;;;;5032284;28;20041;-69
2024/01/13 02:57:29;;;;;;;9.38;4.45;;;;;;;;;;5032140;28;20119;-69
2024/01/13 02:59:54;;;;;;;9.23;4.65;;;;;;;;;;5031761;28;20136;-69
2024/01/13 03:02:20;;;;;;;9.38;4.97;;;;;;;;;;5029494;28;20038;-69
2024/01/13 03:04:46;;;;;;;8.10;4.38;;;;;;;;;;5031718;28;20048;-69
2024/01/13 03:07:12;;;;;;;9.02;4.75;;;;;;;;;;5031946;28;20037;-69
2024/01/13 03:09:39;;;;;;;9.23;4.40;;;;;;;;;;5039322;28;20092;-69
2024/01/13 03:12:05;;;;;;;10.05;4.40;;;;;;;;;;5031159;28;21585;-69
2024/01/13 03:14:31;;;;;;;10.23;4.68;;;;;;;;;;5031929;28;20038;-69
2024/01/13 03:16:57;;;;;;;7.70;4.25;;;;;;;;;;5032132;28;20034;-69
2024/01/13 03:19:23;;;;;;;8.27;4.32;;;;;;;;;;5034749;28;20053;-69
2024/01/13 03:21:49;;;;;;;9.38;4.63;;;;;;;;;;5037452;28;20045;-69
2024/01/13 03:24:15;;;;;;;8.82;4.20;;;;;;;;;;5031715;28;20037;-69
2024/01/13 03:26:41;;;;;;;8.95;4.47;;;;;;;;;;5032005;28;20041;-69
2024/01/13 03:29:07;;;;;;;8.73;4.43;;;;;;;;;;5032054;28;20045;-69
2024/01/13 03:31:33;;;;;;;7.75;3.97;;;;;;;;;;5031773;28;20037;-69
2024/01/13 03:33:59;;;;;;;8.43;4.20;;;;;;;;;;5031755;28;20049;-69
2024/01/13 03:36:25;;;;;;;8.68;4.65;;;;;;;;;;5032722;28;20041;-69
2024/01/13 03:38:51;;;;;;;9.10;4.47;;;;;;;;;;5037372;28;20042;-69
2024/01/13 03:41:18;;;;;;;8.05;4.10;;;;;;;;;;5030165;28;20049;-69
2024/01/13 03:43:44;;;;;;;8.82;4.53;;;;;;;;;;5031896;28;20105;-69
2024/01/13 03:46:10;;;;;;;7.63;4.28;;;;;;;;;;5031433;28;20056;-69
2024/01/13 03:48:36;;;;;;;7.55;4.05;;;;;;;;;;5036186;28;20079;-69
2024/01/13 03:51:03;;;;;;;8.48;4.00;;;;;;;;;;5035352;28;20399;-69
2024/01/13 03:53:28;;;;;;;8.60;4.07;;;;;;;;;;5036037;28;20096;-69
2024/01/13 03:55:55;;;;;;;8.07;3.85;;;;;;;;;;5043201;28;20075;-69
2024/01/13 03:58:21;;;;;;;8.07;3.78;;;;;;;;;;5035473;28;20098;-69
2024/01/13 04:00:46;;;;;;;7.00;3.90;;;;;;;;;;5035357;28;20046;-69
2024/01/13 04:03:13;;;;;;;7.50;3.90;;;;;;;;;;5035919;28;20053;-69
2024/01/13 04:05:39;;;;;;;8.45;4.18;;;;;;;;;;5038767;28;20400;-69
2024/01/13 04:08:05;;;;;;;7.43;3.85;;;;;;;;;;5035579;28;20491;-69
2024/01/13 04:10:31;;;;;;;8.00;3.97;;;;;;;;;;5034052;28;20092;-69
2024/01/13 04:12:57;;;;;;;7.18;3.65;;;;;;;;;;5035249;28;20057;-69
2024/01/13 04:15:23;;;;;;;7.28;3.83;;;;;;;;;;5036439;28;20486;-69
2024/01/13 04:17:49;;;;;;;6.10;3.83;;;;;;;;;;5035496;28;20045;-69
2024/01/13 04:20:15;;;;;;;5.82;3.58;;;;;;;;;;5035373;28;20037;-69
2024/01/13 04:22:41;;;;;;;10.02;3.63;;;;;;;;;;5034851;28;20073;-69
2024/01/13 04:25:07;;;;;;;9.43;4.15;;;;;;;;;;5035945;28;20045;-69
2024/01/13 04:27:33;;;;;;;9.80;4.10;;;;;;;;;;5034154;28;20049;-69
2024/01/13 04:29:59;;;;;;;8.32;4.07;;;;;;;;;;5033323;28;20049;-69
2024/01/13 04:32:25;;;;;;;9.15;4.47;;;;;;;;;;5032837;28;20045;-69
2024/01/13 04:34:51;;;;;;;5.50;3.60;;;;;;;;;;5035264;28;20041;-69
2024/01/13 04:37:17;;;;;;;8.07;4.03;;;;;;;;;;5035202;28;20037;-69
2024/01/13 04:39:43;;;;;;;9.98;3.95;;;;;;;;;;5034753;28;20041;-69
2024/01/13 04:42:09;;;;;;;7.70;4.13;;;;;;;;;;5034438;28;20479;-69
2024/01/13 04:44:35;;;;;;;7.22;4.20;;;;;;;;;;5035075;28;20056;-69
2024/01/13 04:47:01;;;;;;;7.22;3.80;;;;;;;;;;5034652;28;20076;-69
2024/01/13 04:49:27;;;;;;;10.13;4.07;;;;;;;;;;5035117;28;20044;-69
2024/01/13 04:51:53;;;;;;;9.48;4.10;;;;;;;;;;5034522;28;20118;-71
2024/01/13 04:54:19;;;;;;;9.45;3.90;;;;;;;;;;5033508;28;20037;-70
2024/01/13 04:56:45;;;;;;;6.45;3.65;;;;;;;;;;5034402;28;20069;-70
2024/01/13 04:59:11;;;;;;;6.95;3.47;;;;;;;;;;5034178;28;20079;-70
2024/01/13 05:01:37;;;;;;;10.23;4.20;;;;;;;;;;5027506;28;20084;-70
2024/01/13 05:04:03;;;;;;;6.40;3.88;;;;;;;;;;5031869;28;20060;-70
2024/01/13 05:06:29;;;;;;;8.77;3.70;;;;;;;;;;5032904;28;20045;-70
2024/01/13 05:08:55;;;;;;;7.63;3.92;;;;;;;;;;5034073;28;20052;-70
2024/01/13 05:11:21;;;;;;;6.82;3.70;;;;;;;;;;5033847;28;20037;-70
2024/01/13 05:13:47;;;;;;;9.43;4.28;;;;;;;;;;5033960;28;20034;-70
2024/01/13 05:16:13;;;;;;;7.28;3.60;;;;;;;;;;5034586;28;20037;-70
2024/01/13 05:18:39;;;;;;;7.78;4.03;;;;;;;;;;5033981;28;20041;-70
2024/01/13 05:21:05;;;;;;;8.05;3.95;;;;;;;;;;5033355;28;20514;-70
2024/01/13 05:23:31;;;;;;;10.38;4.13;;;;;;;;;;5024089;28;20041;-70
2024/01/13 05:25:57;;;;;;;7.00;3.70;;;;;;;;;;5033519;28;20040;-70
2024/01/13 05:28:24;;;;;;;6.45;3.55;;;;;;;;;;5032613;28;20076;-70
2024/01/13 05:30:50;;;;;;;7.35;3.33;;;;;;;;;;5033993;28;20053;-70
2024/01/13 05:33:17;;;;;;;7.88;3.28;;;;;;;;;;5033307;28;20041;-70
2024/01/13 05:35:43;;;;;;;8.05;3.20;;;;;;;;;;5033878;28;20037;-70
2024/01/13 05:38:09;;;;;;;5.82;2.83;;;;;;;;;;5032764;28;20041;-70
2024/01/13 05:40:35;;;;;;;4.47;2.80;;;;;;;;;;5033438;28;20045;-70
2024/01/13 05:43:01;;;;;;;7.32;3.10;;;;;;;;;;5033967;28;20127;-70
2024/01/13 05:45:27;;;;;;;5.43;2.90;;;;;;;;;;5039064;28;20040;-70
2024/01/13 05:47:52;;;;;;;5.88;2.42;;;;;;;;;;5036640;28;20112;-70
2024/01/13 05:50:18;;;;;;;5.75;2.78;;;;;;;;;;5033506;28;20049;-70
2024/01/13 05:52:44;;;;;;;7.75;2.85;;;;;;;;;;5037725;28;20060;-70
2024/01/13 05:55:10;;;;;;;6.15;2.90;;;;;;;;;;5038739;28;20415;-70
2024/01/13 05:57:36;;;;;;;6.30;2.63;;;;;;;;;;5037930;28;20041;-70
2024/01/13 06:00:03;;;;;;;6.07;2.53;;;;;;;;;;5033556;28;20119;-70
2024/01/13 06:02:29;;;;;;;4.82;2.50;;;;;;;;;;5033295;28;20056;-70
2024/01/13 06:04:55;;;;;;;5.57;2.50;;;;;;;;;;5032985;28;20462;-70
2024/01/13 06:07:21;;;;;;;5.03;2.80;;;;;;;;;;5033638;28;20057;-70
2024/01/13 06:09:47;;;;;;;4.32;2.50;;;;;;;;;;5044623;28;20458;-70
2024/01/13 06:12:13;;;;;;;5.30;2.40;;;;;;;;;;5031991;28;20045;-70
2024/01/13 06:14:41;;;;;;;4.13;2.40;;;;;;;;;;5033487;28;20053;-70
2024/01/13 06:17:08;;;;;;;6.78;2.80;;;;;;;;;;5031841;28;20041;-70
2024/01/13 06:19:34;;;;;;;6.38;2.53;;;;;;;;;;5034401;28;20423;-70
2024/01/13 06:21:59;;;;;;;4.60;2.45;;;;;;;;;;5041031;28;20037;-70
2024/01/13 06:24:25;;;;;;;2.75;1.92;;;;;;;;;;5033321;28;20060;-70
2024/01/13 06:26:51;;;;;;;5.82;2.70;;;;;;;;;;5033222;28;20038;-70
2024/01/13 06:29:17;;;;;;;4.20;2.50;;;;;;;;;;5032361;28;20073;-70
2024/01/13 06:31:43;;;;;;;4.25;2.33;;;;;;;;;;5042455;22;20057;-68
2024/01/13 06:34:09;;;;;;;7.15;2.53;;;;;;;;;;5028419;28;20567;-69
2024/01/13 06:36:35;;;;;;;5.38;2.63;;;;;;;;;;5024857;28;20037;-69
2024/01/13 06:39:01;;;;;;;4.90;2.65;;;;;;;;;;5025249;28;20117;-69
2024/01/13 06:41:27;;;;;;;6.07;2.95;;;;;;;;;;4996576;28;20046;-69
2024/01/13 06:43:53;;;;;;;6.82;3.00;;;;;;;;;;5012894;28;20228;-69
2024/01/13 06:46:19;;;;;;;6.45;3.40;;;;;;;;;;5012947;28;20033;-69
2024/01/13 06:48:45;;;;;;;6.82;3.45;;;;;;;;;;4995078;28;20069;-69
2024/01/13 06:51:11;;;;;;;8.73;3.90;;;;;;;;;;5012206;28;20042;-68
2024/01/13 06:53:37;;;;;;;6.82;3.33;;;;;;;;;;4995469;28;20046;-69
2024/01/13 06:56:03;;;;;;;7.03;3.78;;;;;;;;;;5012321;28;20498;-69
2024/01/13 06:58:29;;;;;;;7.13;3.70;;;;;;;;;;5012729;28;20045;-69
2024/01/13 07:00:55;;;;;;;6.75;4.10;;;;;;;;;;5011969;28;20030;-69
2024/01/13 07:03:21;;;;;;;7.20;3.85;;;;;;;;;;4993836;28;20080;-69
2024/01/13 07:05:47;;;;;;;10.15;3.92;;;;;;;;;;5013075;28;20411;-69
2024/01/13 07:08:14;;;;;;;8.20;4.25;;;;;;;;;;5012093;28;20053;-69
2024/01/13 07:10:40;;;;;;;8.55;4.15;;;;;;;;;;5012327;28;20046;-69
2024/01/13 07:13:06;;;;;;;6.57;3.60;;;;;;;;;;5012131;28;20388;-69
2024/01/13 07:15:32;;;;;;;7.00;3.58;;;;;;;;;;5012498;28;20045;-69
2024/01/13 07:17:58;;;;;;;6.75;3.30;;;;;;;;;;5012183;28;20080;-68
2024/01/13 07:20:24;;;;;;;7.72;3.88;;;;;;;;;;5008887;28;20069;-69
2024/01/13 07:22:50;;;;;;;5.57;3.33;;;;;;;;;;5006954;28;20100;-69
2024/01/13 07:25:16;;;;;;;8.13;3.90;;;;;;;;;;5012094;28;20041;-69
2024/01/13 07:27:42;;;;;;;7.53;3.58;;;;;;;;;;5012863;28;20048;-69
2024/01/13 07:30:08;;;;;;;7.32;3.50;;;;;;;;;;5013918;28;20049;-69
2024/01/13 07:32:34;;;;;;;7.53;3.55;;;;;;;;;;5011933;28;20085;-69
2024/01/13 07:35:00;;;;;;;7.05;3.40;;;;;;;;;;5018512;28;20073;-69
2024/01/13 07:37:26;;;;;;;7.40;3.45;;;;;;;;;;4994755;28;20483;-69
2024/01/13 07:39:52;;;;;;;9.82;3.40;;;;;;;;;;5011993;28;20038;-69
2024/01/13 07:42:18;;;;;;;6.10;3.28;;;;;;;;;;5011945;28;20038;-69
2024/01/13 07:44:44;;;;;;;7.10;3.58;;;;;;;;;;5011780;28;20172;-69
2024/01/13 07:47:10;;;;;;;5.28;3.42;;;;;;;;;;5012028;28;20105;-69
2024/01/13 07:49:36;;;;;;;6.95;3.42;;;;;;;;;;5012178;28;20586;-68
2024/01/13 07:52:02;;;;;;;4.20;2.95;;;;;;;;;;5011848;28;20034;-69
2024/01/13 07:54:28;;;;;;;5.20;2.70;;;;;;;;;;5014516;28;20403;-69
2024/01/13 07:56:54;;;;;;;6.95;3.13;;;;;;;;;;5012370;28;20041;-69
2024/01/13 07:59:21;;;;;;;6.30;3.22;;;;;;;;;;5020068;28;20044;-69
2024/01/13 08:01:47;;;;;;;6.25;3.20;;;;;;;;;;5010339;28;20108;-69
2024/01/13 08:04:15;;;;;;;6.03;3.17;;;;;;;;;;5007787;28;20052;-68
2024/01/13 08:06:41;;;;;;;6.15;3.28;;;;;;;;;;5011295;28;20077;-69
2024/01/13 08:09:07;;;;;;;6.07;2.90;;;;;;;;;;5007994;28;20076;-68
2024/01/13 08:11:33;;;;;;;5.85;3.22;;;;;;;;;;5014988;28;20034;-69
2024/01/13 08:14:00;;;;;;;5.68;3.40;;;;;;;;;;4995471;28;20477;-69
2024/01/13 08:16:27;;;;;;;4.28;2.72;;;;;;;;;;4996195;28;20125;-68
2024/01/13 08:18:53;;;;;;;6.50;3.20;;;;;;;;;;5010963;28;20053;-68
2024/01/13 08:21:19;;;;;;;10.27;4.10;;;;;;;;;;5011952;28;20037;-68
2024/01/13 08:23:45;;;;;;;8.18;3.47;;;;;;;;;;5010051;28;20555;-69
2024/01/13 08:26:11;;;;;;;5.88;3.00;;;;;;;;;;5010465;28;20120;-68
2024/01/13 08:28:37;;;;;;;4.70;3.08;;;;;;;;;;5016579;28;20458;-69
2024/01/13 08:31:03;;;;;;;6.65;3.50;;;;;;;;;;5013515;28;20037;-68
2024/01/13 08:33:29;;;;;;;5.75;3.33;;;;;;;;;;5015403;28;20505;-69
2024/01/13 08:35:55;;;;;;;4.88;2.47;;;;;;;;;;5015797;28;20042;-69
2024/01/13 08:38:21;;;;;;;11.50;3.47;;;;;;;;;;5014039;28;20033;-68
2024/01/13 08:40:47;;;;;;;7.72;3.45;;;;;;;;;;5020308;28;20477;-68
2024/01/13 08:43:13;;;;;;;6.70;3.78;;;;;;;;;;5015097;28;20045;-68
2024/01/13 08:45:39;;;;;;;6.35;3.95;;;;;;;;;;5014663;28;20121;-69
2024/01/13 08:48:05;;;;;;;10.07;4.70;;;;;;;;;;5015345;28;20125;-69
2024/01/13 08:50:34;;;;;;;11.82;5.13;;;;;;;;;;4990945;28;20045;-69
2024/01/13 08:53:00;;;;;;;10.93;4.95;;;;;;;;;;5004963;28;20140;-69
2024/01/13 08:55:26;;;;;;;12.80;5.72;;;;;;;;;;5015430;28;20038;-69
2024/01/13 08:57:52;;;;;;;11.15;5.38;;;;;;;;;;5005168;28;20050;-69
2024/01/13 09:00:19;;;;;;;12.52;5.88;;;;;;;;;;5011710;28;20054;-69
2024/01/13 09:02:45;;;;;;;14.95;6.78;;;;;;;;;;4996665;28;20125;-69
2024/01/13 09:05:13;;;;;;;17.30;6.82;;;;;;;;;;5015218;28;20396;-69
2024/01/13 09:07:39;;;;;;;20.25;7.80;;;;;;;;;;5008002;28;20042;-69
2024/01/13 09:10:05;;;;;;;25.27;10.10;;;;;;;;;;5014273;28;20385;-69
2024/01/13 09:12:31;;;;;;;24.05;9.90;;;;;;;;;;5006909;28;20065;-68
2024/01/13 09:14:57;;;;;;;23.20;8.98;;;;;;;;;;5022942;28;20514;-68
2024/01/13 09:17:23;;;;;;;25.08;9.60;;;;;;;;;;5014809;28;20065;-68
2024/01/13 09:19:49;;;;;;;24.65;8.85;;;;;;;;;;5014470;28;20073;-68
2024/01/13 09:22:15;;;;;;;34.17;11.23;;;;;;;;;;5011061;28;20113;-68
2024/01/13 09:24:42;;;;;;;33.00;12.70;;;;;;;;;;4990005;28;20045;-69
2024/01/13 09:27:08;;;;;;;24.10;10.82;;;;;;;;;;5019870;28;20084;-68
2024/01/13 09:29:34;;;;;;;31.27;12.23;;;;;;;;;;5013794;28;20492;-68
2024/01/13 09:32:00;;;;;;;35.63;13.52;;;;;;;;;;5013109;28;20543;-68
2024/01/13 09:34:27;;;;;;;31.50;13.32;;;;;;;;;;4996189;28;20034;-67
2024/01/13 09:36:53;;;;;;;38.40;14.60;;;;;;;;;;5013741;28;20469;-67
2024/01/13 09:39:20;;;;;;;43.58;16.30;;;;;;;;;;5013473;28;20416;-67
2024/01/13 09:41:47;;;;;;;49.30;16.00;;;;;;;;;;5011807;28;20562;-68
2024/01/13 09:44:18;;;;;;;45.47;17.23;;;;;;;;;;5012501;28;20038;-68
2024/01/13 09:46:44;;;;;;;46.17;18.58;;;;;;;;;;4998370;28;20054;-68
2024/01/13 09:49:12;;;;;;;49.25;18.63;;;;;;;;;;4993247;28;20046;-68
2024/01/13 09:51:38;;;;;;;48.92;19.20;;;;;;;;;;5012977;28;20072;-68
2024/01/13 09:54:10;;;;;;;49.03;19.42;;;;;;;;;;5013297;28;20492;-68
2024/01/13 09:56:40;;;;;;;53.55;21.25;;;;;;;;;;5013579;28;20042;-68
2024/01/13 09:59:06;;;;;;;62.08;21.50;;;;;;;;;;5013683;28;20371;-68
2024/01/13 10:01:32;;;;;;;58.30;23.77;;;;;;;;;;5021296;28;20573;-68
2024/01/13 10:03:58;;;;;;;57.88;23.27;;;;;;;;;;5012394;28;20045;-68
2024/01/13 10:06:24;;;;;;;53.67;21.75;;;;;;;;;;5012913;28;20176;-68
2024/01/13 10:08:50;;;;;;;61.22;22.95;;;;;;;;;;5007978;28;20479;-68
2024/01/13 10:11:16;;;;;;;60.58;22.23;;;;;;;;;;5008163;28;20038;-68
2024/01/13 10:13:42;;;;;;;57.78;22.98;;;;;;;;;;5013557;28;20038;-68
2024/01/13 10:16:08;;;;;;;63.55;24.27;;;;;;;;;;5012624;28;20489;-68
2024/01/13 10:18:34;;;;;;;57.30;23.50;;;;;;;;;;5011457;28;20125;-68
2024/01/13 10:21:05;;;;;;;62.35;23.80;;;;;;;;;;5012252;28;20515;-68
2024/01/13 10:23:31;;;;;;;58.92;23.88;;;;;;;;;;5005211;28;20054;-68
2024/01/13 10:25:57;;;;;;;59.90;24.80;;;;;;;;;;5012821;28;20099;-68
2024/01/13 10:28:23;;;;;;;61.80;25.73;;;;;;;;;;5011457;28;20069;-68
2024/01/13 10:30:50;;;;;;;58.53;24.35;;;;;;;;;;5011761;28;20096;-68
2024/01/13 10:33:16;;;;;;;59.13;24.40;;;;;;;;;;5012451;28;20037;-68
2024/01/13 10:35:42;;;;;;;63.08;25.58;;;;;;;;;;5012442;28;20052;-67
2024/01/13 10:38:08;;;;;;;62.97;26.05;;;;;;;;;;5004487;28;20077;-69
2024/01/13 10:40:34;;;;;;;61.65;24.60;;;;;;;;;;4985653;28;20041;-68
2024/01/13 10:43:02;;;;;;;63.45;26.58;;;;;;;;;;5002781;28;20035;-68
2024/01/13 10:45:28;;;;;;;62.40;25.67;;;;;;;;;;5005742;28;20486;-68
2024/01/13 10:48:05;;;;;;;62.58;25.95;;;;;;;;;;5012072;28;20046;-68
2024/01/13 10:50:31;;;;;;;63.85;26.42;;;;;;;;;;5012581;28;20069;-68
2024/01/13 10:53:16;;;;;;;59.08;25.30;;;;;;;;;;5032862;22;20518;-69
2024/01/13 10:55:43;;;;;;;59.85;25.13;;;;;;;;;;5030511;28;20156;-69
2024/01/13 10:58:10;;;;;;;61.30;26.35;;;;;;;;;;5013565;28;20041;-69
2024/01/13 11:00:36;;;;;;;62.20;26.70;;;;;;;;;;5027820;28;20144;-70
2024/01/13 11:03:07;;;;;;;59.83;25.42;;;;;;;;;;5040805;28;20046;-70
2024/01/13 11:05:35;;;;;;;61.50;23.10;;;;;;;;;;5038197;28;20060;-70
2024/01/13 11:08:03;;;;;;;64.32;25.60;;;;;;;;;;5014607;28;20176;-69
2024/01/13 11:10:32;;;;;;;57.85;24.83;;;;;;;;;;5030318;28;20048;-69
2024/01/13 11:13:02;;;;;;;58.20;24.90;;;;;;;;;;5016990;28;20463;-69
2024/01/13 11:15:34;;;;;;;58.13;24.40;;;;;;;;;;5031707;28;20030;-71
2024/01/13 11:18:04;;;;;;;52.50;25.23;;;;;;;;;;5013579;28;20045;-70
2024/01/13 11:20:30;;;;;;;55.60;25.17;;;;;;;;;;5030847;28;20037;-70
2024/01/13 11:22:57;;;;;;;55.00;26.17;;;;;;;;;;5014029;28;20103;-69
2024/01/13 11:25:27;;;;;;;55.92;24.92;;;;;;;;;;5031888;28;20041;-69
2024/01/13 11:27:59;;;;;;;59.75;26.65;;;;;;;;;;5034461;28;20033;-69
2024/01/13 11:30:31;;;;;;;58.13;25.92;;;;;;;;;;5013398;28;20526;-70
2024/01/13 11:32:57;;;;;;;63.10;26.60;;;;;;;;;;5031260;28;20076;-70
2024/01/13 11:35:25;;;;;;;59.88;27.15;;;;;;;;;;5031709;28;20468;-70
2024/01/13 11:37:54;;;;;;;66.38;29.08;;;;;;;;;;5026406;28;20067;-70
2024/01/13 11:40:20;;;;;;;62.38;29.42;;;;;;;;;;5030459;28;20081;-70
2024/01/13 11:42:46;;;;;;;60.05;27.45;;;;;;;;;;5009907;28;20587;-69
2024/01/13 11:45:13;;;;;;;66.57;28.52;;;;;;;;;;5025881;28;20120;-69
2024/01/13 11:47:39;;;;;;;64.97;28.45;;;;;;;;;;5028138;28;20041;-69
2024/01/13 11:50:25;;;;;;;64.25;29.83;;;;;;;;;;5037691;28;20501;-70
2024/01/13 11:52:51;;;;;;;66.68;29.45;;;;;;;;;;5012070;28;20046;-70
2024/01/13 11:55:17;;;;;;;67.43;29.15;;;;;;;;;;5028222;28;20112;-70
2024/01/13 11:57:43;;;;;;;61.70;26.17;;;;;;;;;;5028685;28;20121;-69
2024/01/13 12:00:10;;;;;;;67.32;27.30;;;;;;;;;;5013616;28;20046;-69
2024/01/13 12:02:36;;;;;;;67.20;27.83;;;;;;;;;;5028147;28;20041;-69
2024/01/13 12:05:03;;;;;;;72.43;30.55;;;;;;;;;;5027293;28;20514;-70
2024/01/13 12:07:30;;;;;;;69.75;28.30;;;;;;;;;;5031907;28;20488;-70
2024/01/13 12:09:56;;;;;;;72.90;30.83;;;;;;;;;;5034897;28;20095;-70
2024/01/13 12:12:23;;;;;;;73.38;30.90;;;;;;;;;;5033068;28;20037;-70
2024/01/13 12:14:49;;;;;;;71.65;29.02;;;;;;;;;;5016989;28;20459;-70
2024/01/13 12:17:16;;;;;;;69.72;28.88;;;;;;;;;;5015910;28;20069;-70
2024/01/13 12:19:42;;;;;;;69.13;29.85;;;;;;;;;;5035339;28;20461;-70
2024/01/13 12:22:09;;;;;;;67.45;29.70;;;;;;;;;;5039605;28;20064;-69
2024/01/13 12:24:36;;;;;;;65.47;28.95;;;;;;;;;;5035044;28;20120;-69
2024/01/13 12:27:02;;;;;;;64.45;28.65;;;;;;;;;;5034867;28;20051;-70
2024/01/13 12:29:33;;;;;;;65.32;27.60;;;;;;;;;;5034682;28;20045;-70
2024/01/13 12:31:59;;;;;;;65.47;27.27;;;;;;;;;;5079779;22;20053;-68
2024/01/13 12:34:25;;;;;;;61.75;25.90;;;;;;;;;;5053313;28;20041;-68
2024/01/13 12:36:51;;;;;;;64.20;26.60;;;;;;;;;;5053995;28;20029;-68
2024/01/13 12:39:17;;;;;;;62.95;25.70;;;;;;;;;;5048962;28;20049;-68
2024/01/13 12:41:43;;;;;;;58.75;25.35;;;;;;;;;;5038137;28;20137;-68
2024/01/13 12:44:09;;;;;;;54.95;24.83;;;;;;;;;;5022916;28;20497;-68
2024/01/13 12:46:36;;;;;;;52.78;22.83;;;;;;;;;;5032940;28;20111;-68
2024/01/13 12:49:16;;;;;;;64.68;24.50;;;;;;;;;;5040605;28;20167;-68
2024/01/13 12:51:46;;;;;;;53.42;24.88;;;;;;;;;;5034022;28;20045;-68
2024/01/13 12:54:19;;;;;;;55.40;24.55;;;;;;;;;;5035391;28;20453;-68
2024/01/13 12:56:49;;;;;;;57.97;25.85;;;;;;;;;;5047000;28;20390;-68
2024/01/13 12:59:19;;;;;;;56.17;22.08;;;;;;;;;;5045660;28;20047;-68
2024/01/13 13:01:45;;;;;;;48.65;21.85;;;;;;;;;;5028808;28;20049;-67
2024/01/13 13:04:11;;;;;;;48.35;22.27;;;;;;;;;;5034028;28;20046;-68
2024/01/13 13:06:38;;;;;;;53.15;22.75;;;;;;;;;;5047099;28;20040;-68
2024/01/13 13:09:04;;;;;;;51.63;21.75;;;;;;;;;;5037624;28;20041;-68
2024/01/13 13:11:31;;;;;;;50.85;22.13;;;;;;;;;;5028443;28;20060;-68
2024/01/13 13:13:58;;;;;;;45.83;20.75;;;;;;;;;;5022941;28;20370;-68
2024/01/13 13:16:24;;;;;;;48.50;22.08;;;;;;;;;;5032307;28;20486;-68
2024/01/13 13:18:50;;;;;;;48.90;20.95;;;;;;;;;;5033264;28;20052;-68
2024/01/13 13:21:16;;;;;;;45.75;19.50;;;;;;;;;;5036599;28;20572;-68
2024/01/13 13:23:44;;;;;;;41.20;18.88;;;;;;;;;;5025901;28;20174;-68
2024/01/13 13:26:10;;;;;;;47.53;19.73;;;;;;;;;;5032906;28;20049;-68
2024/01/13 13:28:36;;;;;;;33.20;16.15;;;;;;;;;;5031574;28;20037;-67
2024/01/13 13:31:07;;;;;;;39.05;18.45;;;;;;;;;;5032527;28;20412;-68
2024/01/13 13:33:33;;;;;;;44.53;19.15;;;;;;;;;;5034490;28;20065;-67
2024/01/13 13:35:59;;;;;;;40.83;17.83;;;;;;;;;;5032211;28;20045;-68
2024/01/13 13:38:27;;;;;;;40.55;17.15;;;;;;;;;;5041664;28;20056;-68
2024/01/13 13:40:58;;;;;;;39.38;18.13;;;;;;;;;;5040839;28;20045;-68
2024/01/13 13:43:29;;;;;;;38.70;17.02;;;;;;;;;;5035047;28;20041;-68
2024/01/13 13:45:58;;;;;;;43.25;17.75;;;;;;;;;;5037426;28;20049;-69
2024/01/13 13:48:28;;;;;;;38.30;16.45;;;;;;;;;;5032518;28;20033;-69
2024/01/13 13:50:54;;;;;;;34.65;16.13;;;;;;;;;;5039833;28;20045;-69
2024/01/13 13:53:22;;;;;;;36.80;15.40;;;;;;;;;;5040566;28;20048;-69
2024/01/13 13:55:52;;;;;;;;;;;;;;;;;;5029265;28;20129;-69
2024/01/13 13:58:21;;;;;;;34.42;15.18;;;;;;;;;;5031904;28;19917;-69
2024/01/13 14:00:47;;;;;;;31.77;14.07;;;;;;;;;;5042296;28;20051;-69
2024/01/13 14:03:13;;;;;;;34.88;14.77;;;;;;;;;;5033152;28;20041;-69
2024/01/13 14:05:41;;;;;;;34.22;14.82;;;;;;;;;;5041375;28;20077;-69
2024/01/13 14:08:07;;;;;;;32.53;14.60;;;;;;;;;;5031626;28;20052;-69
2024/01/13 14:10:33;;;;;;;31.33;14.88;;;;;;;;;;5034000;28;20106;-69
2024/01/13 14:12:59;;;;;;;32.97;14.82;;;;;;;;;;5034908;28;20033;-68
2024/01/13 14:15:28;;;;;;;40.17;14.57;;;;;;;;;;5041526;28;20042;-68
2024/01/13 14:17:57;;;;;;;34.72;15.00;;;;;;;;;;5047087;28;20048;-67
2024/01/13 14:20:23;;;;;;;32.53;14.85;;;;;;;;;;5044680;28;20045;-68
2024/01/13 14:22:50;;;;;;;29.58;14.38;;;;;;;;;;5036370;28;20515;-68
2024/01/13 14:25:18;;;;;;;39.10;19.45;;;;;;;;;;5032733;28;20044;-68
2024/01/13 14:27:44;;;;;;;28.85;13.48;;;;;;;;;;5034471;28;20037;-68
2024/01/13 14:30:10;;;;;;;42.28;28.08;;;;;;;;;;5044140;28;20496;-68